Time;durP1;ratioP1;P1;durP2;ratioP2;P2;SDS_P1;SDS_P2;PMS_P1;PMS_P2;Temp;Humidity;BMP_temperature;BMP_pressure;BME280_temperature;BME280_humidity;BME280_pressure;Samples;Min_cycle;Max_cycle;Signal;HPM_P1;HPM_P2
2023/09/03 00:01:12;;;;;;;5.00;4.50;;;;;;;22.49;100.00;100071.86;108448;1254;73034;-61
2023/09/03 00:03:40;;;;;;;5.60;4.70;;;;;;;22.52;100.00;100069.83;108420;1254;61505;-60
2023/09/03 00:06:08;;;;;;;7.50;4.80;;;;;;;22.54;100.00;100069.27;108444;1253;59759;-61
2023/09/03 00:08:36;;;;;;;7.10;4.70;;;;;;;22.55;100.00;100066.58;108402;1252;73608;-61
2023/09/03 00:11:03;;;;;;;4.70;4.30;;;;;;;22.59;100.00;100062.88;108457;1252;69415;-61
2023/09/03 00:13:31;;;;;;;4.70;4.30;;;;;;;22.62;100.00;100061.91;108538;1252;72409;-61
2023/09/03 00:15:59;;;;;;;6.10;4.40;;;;;;;22.64;100.00;100061.71;108429;1254;60655;-61
2023/09/03 00:18:26;;;;;;;;;;;;;;;22.66;100.00;100058.29;108454;1253;59133;-61
2023/09/03 00:21:12;;;;;;;;;;;;;;;22.69;100.00;100054.30;108376;1254;72895;-62
2023/09/03 00:23:40;;;;;;;4.80;4.30;;;;;;;22.68;100.00;100055.32;108434;1251;68229;-61
2023/09/03 00:26:15;;;;;;;7.00;4.50;;;;;;;22.65;100.00;100055.38;108516;1251;72440;-61
2023/09/03 00:28:43;;;;;;;5.20;4.70;;;;;;;22.64;100.00;100054.16;108517;1251;61428;-60
2023/09/03 00:31:10;;;;;;;5.20;4.70;;;;;;;22.66;100.00;100053.65;108430;1252;60106;-61
2023/09/03 00:33:38;;;;;;;5.30;4.80;;;;;;;22.67;100.00;100055.14;108419;1252;72777;-61
2023/09/03 00:36:06;;;;;;;;;;;;;;;22.71;100.00;100052.50;108453;1254;68110;-61
2023/09/03 00:38:34;;;;;;;5.30;4.80;;;;;;;22.70;100.00;100058.88;108402;1251;72471;-61
2023/09/03 00:41:04;;;;;;;5.80;4.90;;;;;;;22.64;100.00;100058.67;108315;1253;61459;-60
2023/09/03 00:43:32;;;;;;;7.30;5.60;;;;;;;22.60;100.00;100058.14;108178;1253;59873;-61
2023/09/03 00:46:02;;;;;;;7.70;5.80;;;;;;;22.52;100.00;100056.48;108255;1252;72857;-60
2023/09/03 00:48:31;;;;;;;6.70;6.00;;;;;;;22.44;100.00;100053.21;108271;1252;70096;-60
2023/09/03 00:51:00;;;;;;;9.30;6.30;;;;;;;22.37;100.00;100053.62;108269;1253;72523;-60
2023/09/03 00:53:30;;;;;;;6.40;5.80;;;;;;;22.34;100.00;100054.11;108287;1252;61551;-61
2023/09/03 00:55:58;;;;;;;7.10;5.60;;;;;;;22.29;100.00;100051.42;108418;1252;59676;-61
2023/09/03 00:58:26;;;;;;;6.30;5.70;;;;;;;22.23;100.00;100046.77;108153;1252;72872;-60
2023/09/03 01:00:56;;;;;;;8.00;5.90;;;;;;;22.18;100.00;100041.65;108458;1253;69393;-60
2023/09/03 01:03:25;;;;;;;6.80;5.70;;;;;;;22.12;100.00;100045.52;108405;1251;72465;-60
2023/09/03 01:05:53;;;;;;;6.20;5.60;;;;;;;22.13;100.00;100045.47;108418;1251;60841;-60
2023/09/03 01:08:21;;;;;;;6.40;5.60;;;;;;;22.19;100.00;100044.24;108434;1251;60172;-60
2023/09/03 01:11:21;;;;;;;5.70;5.10;;;;;;;22.21;100.00;100046.98;108404;1255;71721;-60
2023/09/03 01:13:54;;;;;;;6.10;4.60;;;;;;;22.24;100.00;100040.84;108285;1251;70040;-61
2023/09/03 01:16:36;;;;;;;7.30;4.60;;;;;;;22.28;100.00;100042.09;108588;1251;72508;-61
2023/09/03 01:19:28;;;;;;;5.60;5.10;;;;;;;22.27;100.00;100042.75;108265;1251;61369;-61
2023/09/03 01:22:09;;;;;;;5.90;5.40;;;;;;;22.24;100.00;100046.71;108429;1251;59857;-61
2023/09/03 01:24:49;;;;;;;5.70;4.70;;;;;;;22.30;100.00;100042.30;108175;1251;73013;-61
2023/09/03 01:27:25;;;;;;;6.70;5.30;;;;;;;22.32;100.00;100041.94;108327;1251;69493;-61
2023/09/03 01:29:53;;;;;;;4.90;4.30;;;;;;;22.32;100.00;100038.19;108436;1251;73171;-61
2023/09/03 01:32:21;;;;;;;6.10;4.80;;;;;;;22.34;100.00;100039.80;108548;1251;61755;-60
2023/09/03 01:34:50;;;;;;;5.10;4.30;;;;;;;22.31;100.00;100036.44;108487;1251;59815;-61
2023/09/03 01:37:17;;;;;;;5.00;4.50;;;;;;;22.44;100.00;100037.89;107903;1251;73594;-60
2023/09/03 01:39:45;;;;;;;5.30;4.80;;;;;;;22.42;100.00;100034.30;108242;1251;69262;-60
2023/09/03 01:42:13;;;;;;;6.70;4.40;;;;;;;22.42;100.00;100031.95;108476;1251;72267;-61
2023/09/03 01:44:40;;;;;;;5.50;5.00;;;;;;;22.39;100.00;100034.23;108439;1251;62412;-61
2023/09/03 01:47:48;;;;;;;5.10;4.60;;;;;;;22.31;100.00;100029.84;108438;1252;59711;-60
2023/09/03 01:50:30;;;;;;;5.20;4.70;;;;;;;22.26;100.00;100030.14;107474;1259;73651;-61
2023/09/03 01:53:07;;;;;;;5.10;4.50;;;;;;;22.23;100.00;100022.00;108102;1252;69718;-61
2023/09/03 01:55:36;;;;;;;8.40;5.00;;;;;;;22.16;100.00;100022.89;108392;1252;71186;-61
2023/09/03 01:58:05;;;;;;;5.20;4.70;;;;;;;22.10;100.00;100025.34;108547;1253;61373;-61
2023/09/03 02:00:32;;;;;;;5.30;4.80;;;;;;;22.05;100.00;100025.80;108004;1252;60750;-63
2023/09/03 02:03:01;;;;;;;5.80;5.20;;;;;;;22.04;100.00;100029.11;108256;1252;72690;-61
2023/09/03 02:05:29;;;;;;;6.50;4.70;;;;;;;22.05;100.00;100029.94;108409;1252;69147;-61
2023/09/03 02:07:56;;;;;;;;;;;;;;;22.01;100.00;100031.88;108244;1253;72916;-61
2023/09/03 02:10:24;;;;;;;5.60;4.90;;;;;;;21.97;100.00;100027.02;108000;1253;60414;-61
2023/09/03 02:12:51;;;;;;;5.20;4.70;;;;;;;21.95;100.00;100024.83;108046;1253;60103;-61
2023/09/03 02:15:19;;;;;;;9.10;5.20;;;;;;;21.94;100.00;100026.20;108540;1253;73698;-61
2023/09/03 02:17:46;;;;;;;6.10;4.50;;;;;;;21.90;100.00;100029.77;108274;1253;70038;-61
2023/09/03 02:20:15;;;;;;;5.50;4.90;;;;;;;21.86;100.00;100031.30;108417;1253;72433;-61
2023/09/03 02:22:43;;;;;;;8.10;5.20;;;;;;;21.89;100.00;100035.16;108189;1255;61392;-61
2023/09/03 02:25:11;;;;;;;6.40;5.20;;;;;;;21.96;100.00;100040.33;108275;1253;59684;-61
2023/09/03 02:27:38;;;;;;;5.30;4.90;;;;;;;21.99;100.00;100037.02;108226;1253;74509;-61
2023/09/03 02:30:06;;;;;;;6.50;5.10;;;;;;;22.03;100.00;100037.96;108254;1253;69262;-61
2023/09/03 02:32:35;;;;;;;5.40;4.90;;;;;;;22.07;100.00;100032.39;108204;1253;72892;-61
2023/09/03 02:35:02;;;;;;;5.70;4.90;;;;;;;22.11;100.00;100028.84;108143;1253;61397;-61
2023/09/03 02:37:30;;;;;;;6.90;5.10;;;;;;;22.14;100.00;100024.66;108062;1253;59743;-62
2023/09/03 02:40:00;;;;;;;8.00;5.20;;;;;;;22.10;100.00;100020.19;108142;1253;73720;-61
2023/09/03 02:42:28;;;;;;;5.80;5.30;;;;;;;22.01;100.00;100019.89;108408;1254;69195;-60
2023/09/03 02:44:56;;;;;;;9.80;5.50;;;;;;;21.98;100.00;100020.69;108421;1254;72329;-61
2023/09/03 02:47:23;;;;;;;5.60;5.10;;;;;;;21.93;100.00;100023.96;108351;1254;61548;-61
2023/09/03 02:49:51;;;;;;;5.60;4.80;;;;;;;21.92;100.00;100026.92;108340;1253;59701;-61
2023/09/03 02:52:18;;;;;;;7.00;5.20;;;;;;;21.91;100.00;100024.66;108411;1252;73776;-61
2023/09/03 02:54:46;;;;;;;8.00;5.70;;;;;;;21.95;100.00;100025.38;108195;1253;69055;-60
2023/09/03 02:57:14;;;;;;;7.90;5.40;;;;;;;21.91;100.00;100025.39;108391;1254;72371;-61
2023/09/03 02:59:43;;;;;;;6.80;5.00;;;;;;;21.87;100.00;100029.66;108417;1253;61433;-60
2023/09/03 03:02:12;;;;;;;6.60;5.10;;;;;;;21.85;100.00;100026.10;108426;1253;60696;-60
2023/09/03 03:04:39;;;;;;;5.40;4.90;;;;;;;21.81;100.00;100024.86;108220;1253;73714;-62
2023/09/03 03:07:09;;;;;;;9.00;5.10;;;;;;;21.80;100.00;100023.79;108431;1252;69293;-58
2023/09/03 03:09:37;;;;;;;5.20;4.70;;;;;;;21.81;100.00;100023.73;108525;1253;72214;-59
2023/09/03 03:12:05;;;;;;;;;;;;;;;21.82;100.00;100025.75;108178;1255;61707;-59
2023/09/03 03:14:33;;;;;;;8.20;5.00;;;;;;;21.84;100.00;100026.48;108182;1254;60439;-58
2023/09/03 03:17:01;;;;;;;8.30;5.70;;;;;;;21.85;100.00;100023.77;108416;1253;74119;-58
2023/09/03 03:19:29;;;;;;;5.60;5.00;;;;;;;21.88;100.00;100022.58;108395;1254;69257;-58
2023/09/03 03:21:58;;;;;;;7.10;5.20;;;;;;;21.90;100.00;100017.27;108188;1254;72314;-58
2023/09/03 03:24:26;;;;;;;7.00;5.10;;;;;;;21.90;100.00;100018.30;108423;1253;61436;-58
2023/09/03 03:26:54;;;;;;;5.60;5.10;;;;;;;21.90;100.00;100019.38;108395;1254;60333;-58
2023/09/03 03:29:23;;;;;;;7.30;5.80;;;;;;;21.93;100.00;100017.68;108370;1253;72332;-60
2023/09/03 03:31:51;;;;;;;7.40;5.90;;;;;;;21.92;100.00;100023.31;108221;1252;68484;-61
2023/09/03 03:34:19;;;;;;;;;;;;;;;21.89;100.00;100018.23;108390;1252;72887;-60
2023/09/03 03:36:48;;;;;;;6.50;5.30;;;;;;;21.85;100.00;100023.42;108330;1254;62445;-61
2023/09/03 03:39:16;;;;;;;8.20;5.50;;;;;;;21.82;100.00;100024.70;108406;1252;59820;-60
2023/09/03 03:41:43;;;;;;;8.30;6.20;;;;;;;21.85;100.00;100021.08;108253;1252;73590;-60
2023/09/03 03:44:15;;;;;;;6.70;5.90;;;;;;;21.84;100.00;100019.56;108227;1254;69181;-61
2023/09/03 03:46:43;;;;;;;6.20;5.60;;;;;;;21.82;100.00;100020.77;108053;1254;72493;-61
2023/09/03 03:49:11;;;;;;;6.50;5.80;;;;;;;21.83;100.00;100021.46;108335;1254;61522;-59
2023/09/03 03:51:38;;;;;;;6.90;6.30;;;;;;;21.86;100.00;100024.02;108265;1254;59804;-59
2023/09/03 03:54:06;;;;;;;8.60;6.30;;;;;;;21.90;100.00;100027.77;108552;1253;74055;-60
2023/09/03 03:56:34;;;;;;;7.40;5.90;;;;;;;21.94;100.00;100028.13;108399;1252;69747;-60
2023/09/03 03:59:03;;;;;;;9.00;5.90;;;;;;;21.91;100.00;100033.01;108400;1254;72457;-60
2023/09/03 04:01:30;;;;;;;6.60;5.80;;;;;;;21.95;100.00;100029.48;108524;1253;61766;-61
2023/09/03 04:03:58;;;;;;;6.80;6.10;;;;;;;21.95;100.00;100025.23;108565;1253;60758;-61
2023/09/03 04:06:30;;;;;;;6.50;6.00;;;;;;;21.93;100.00;100025.06;108564;1252;72944;-61
2023/09/03 04:08:58;;;;;;;7.90;6.20;;;;;;;22.00;100.00;100021.96;108401;1254;68429;-61
2023/09/03 04:11:26;;;;;;;7.50;6.70;;;;;;;22.02;100.00;100016.98;108399;1253;72496;-61
2023/09/03 04:13:53;;;;;;;7.00;6.40;;;;;;;22.05;100.00;100013.48;108113;1254;61696;-62
2023/09/03 04:16:24;;;;;;;8.40;5.90;;;;;;;22.11;100.00;100017.09;108117;1253;60803;-61
2023/09/03 04:18:52;;;;;;;6.50;6.00;;;;;;;22.11;100.00;100017.27;108229;1254;73674;-61
2023/09/03 04:21:20;;;;;;;9.30;6.60;;;;;;;22.13;100.00;100019.73;108194;1254;68526;-62
2023/09/03 04:23:47;;;;;;;6.40;5.80;;;;;;;22.19;100.00;100015.74;108314;1256;72599;-61
2023/09/03 04:26:15;;;;;;;6.00;5.40;;;;;;;22.25;100.00;100016.44;108165;1256;60458;-60
2023/09/03 04:28:50;;;;;;;5.80;5.20;;;;;;;22.30;100.00;100013.71;108182;1253;59222;-61
2023/09/03 04:31:18;;;;;;;;;;;;;;;22.32;100.00;100008.56;108335;1253;73774;-61
2023/09/03 04:33:46;;;;;;;8.60;5.50;;;;;;;22.35;100.00;100010.93;108082;1253;69402;-61
2023/09/03 04:36:13;;;;;;;5.90;5.40;;;;;;;22.35;100.00;100012.78;108175;1253;72376;-61
2023/09/03 04:38:41;;;;;;;6.10;5.30;;;;;;;22.38;100.00;100011.46;108010;1252;61423;-61
2023/09/03 04:41:10;;;;;;;5.50;5.00;;;;;;;22.37;100.00;100010.75;108078;1253;59719;-61
2023/09/03 04:43:46;;;;;;;6.70;4.90;;;;;;;22.36;100.00;100013.18;108118;1254;72769;-61
2023/09/03 04:46:18;;;;;;;6.40;5.50;;;;;;;22.37;100.00;100011.85;108277;1253;69408;-59
2023/09/03 04:48:46;;;;;;;8.00;5.20;;;;;;;22.39;100.00;100010.59;108105;1254;73449;-59
2023/09/03 04:51:13;;;;;;;9.80;5.40;;;;;;;22.37;100.00;100007.25;108106;1254;61419;-59
2023/09/03 04:53:41;;;;;;;9.40;6.00;;;;;;;22.37;100.00;100012.78;108170;1252;60134;-59
2023/09/03 04:56:12;;;;;;;7.50;5.20;;;;;;;22.37;100.00;100010.05;107999;1253;73685;-60
2023/09/03 04:58:43;;;;;;;5.60;5.10;;;;;;;22.39;100.00;100009.58;107987;1252;70035;-58
2023/09/03 05:01:14;;;;;;;6.20;5.10;;;;;;;22.39;100.00;100007.58;107962;1254;71823;-59
2023/09/03 05:03:43;;;;;;;6.40;5.50;;;;;;;22.42;100.00;100006.64;108423;1254;61427;-59
2023/09/03 05:06:14;;;;;;;6.90;5.70;;;;;;;22.46;100.00;100005.36;108067;1252;60849;-61
2023/09/03 05:08:42;;;;;;;6.60;5.90;;;;;;;22.49;100.00;100005.09;108470;1251;74509;-61
2023/09/03 05:11:12;;;;;;;6.20;5.60;;;;;;;22.53;100.00;100004.75;108406;1252;70010;-61
2023/09/03 05:13:41;;;;;;;5.90;5.40;;;;;;;22.55;100.00;100004.09;108340;1251;72850;-62
2023/09/03 05:16:09;;;;;;;5.90;5.10;;;;;;;22.57;100.00;100006.44;108428;1251;62384;-61
2023/09/03 05:18:37;;;;;;;;;;;;;;;22.60;100.00;100006.16;108401;1251;58823;-62
2023/09/03 05:21:08;;;;;;;5.50;5.00;;;;;;;22.62;100.00;100007.55;108345;1251;73714;-62
2023/09/03 05:23:36;;;;;;;5.40;4.80;;;;;;;22.63;100.00;100006.94;108340;1253;69192;-61
2023/09/03 05:26:04;;;;;;;6.20;5.50;;;;;;;22.63;100.00;100008.20;108290;1254;71461;-61
2023/09/03 05:28:32;;;;;;;;;;;;;;;22.63;100.00;100011.59;108117;1257;61372;-62
2023/09/03 05:31:00;;;;;;;5.10;4.60;;;;;;;22.65;100.00;100008.69;108479;1251;59830;-61
2023/09/03 05:33:28;;;;;;;6.20;4.70;;;;;;;22.67;100.00;100009.98;108601;1251;73634;-61
2023/09/03 05:39:03;;;;;;;5.00;4.30;;;;;;;22.68;100.00;100008.15;101293;1294;601051;-61
2023/09/03 05:41:31;;;;;;;5.80;5.10;;;;;;;22.68;100.00;100010.06;106707;1266;60828;-62
2023/09/03 05:44:05;;;;;;;5.80;5.20;;;;;;;22.68;100.00;100005.55;106001;1265;58851;-62
2023/09/03 05:46:35;;;;;;;5.80;5.00;;;;;;;22.64;100.00;100004.54;106515;1266;71853;-61
2023/09/03 05:49:03;;;;;;;5.30;4.80;;;;;;;22.63;100.00;100009.08;106665;1266;69270;-62
2023/09/03 05:51:31;;;;;;;5.60;5.10;;;;;;;22.58;100.00;100010.23;106474;1266;288288;-60
2023/09/03 05:54:01;;;;;;;6.10;4.60;;;;;;;22.58;100.00;100008.64;105157;1265;62428;-61
2023/09/03 05:56:29;;;;;;;5.70;5.20;;;;;;;22.56;100.00;100010.55;103890;1269;59717;-60
2023/09/03 05:59:04;;;;;;;6.50;4.90;;;;;;;22.60;100.00;100006.84;103675;1283;71777;-62
2023/09/03 06:01:35;;;;;;;5.60;5.10;;;;;;;22.63;100.00;100007.48;103722;1273;69408;-61
2023/09/03 06:04:04;;;;;;;5.10;4.60;;;;;;;22.66;100.00;100007.34;103861;1287;72371;-60
2023/09/03 06:06:37;;;;;;;6.80;4.50;;;;;;;22.69;100.00;100005.48;103672;1268;61434;-61
2023/09/03 06:09:06;;;;;;;4.90;4.40;;;;;;;22.77;100.00;100005.38;103868;1285;60022;-61
2023/09/03 06:11:36;;;;;;;5.00;4.50;;;;;;;22.80;100.00;100000.06;103888;1285;71946;-60
2023/09/03 06:14:04;;;;;;;7.00;4.70;;;;;;;22.83;100.00;100003.20;103712;1287;69112;-60
2023/09/03 06:16:31;;;;;;;;;;;;;;;22.89;100.00;100007.31;103775;1287;71541;-60
2023/09/03 06:18:59;;;;;;;4.80;4.20;;;;;;;22.93;100.00;100009.65;103724;1269;61851;-60
2023/09/03 06:21:30;;;;;;;4.90;4.40;;;;;;;22.91;100.00;100010.15;103592;1270;60363;-60
2023/09/03 06:23:58;;;;;;;5.90;4.40;;;;;;;22.96;100.00;100008.30;103837;1285;72976;-61
2023/09/03 06:26:26;;;;;;;4.50;3.90;;;;;;;22.98;100.00;100003.67;103997;1268;69078;-61
2023/09/03 06:28:53;;;;;;;4.30;3.60;;;;;;;23.04;100.00;100009.24;104025;1268;72434;-60
2023/09/03 06:31:21;;;;;;;5.60;3.60;;;;;;;23.21;100.00;100010.91;103801;1263;61388;-59
2023/09/03 06:33:53;;;;;;;5.10;4.30;;;;;;;23.22;100.00;100013.17;103889;1266;60623;-59
2023/09/03 06:36:21;;;;;;;4.00;3.50;;;;;;;23.23;100.00;100013.23;103974;1269;72747;-59
2023/09/03 06:38:49;;;;;;;;;;;;;;;23.30;100.00;100015.15;103925;1281;69026;-59
2023/09/03 06:41:16;;;;;;;;;;;;;;;23.42;100.00;100012.50;104502;1278;71185;-59
2023/09/03 06:43:44;;;;;;;;;;;;;;;23.42;100.00;100011.73;104759;1257;61739;-59
2023/09/03 06:46:12;;;;;;;;;;;;;;;23.34;100.00;100009.91;104738;1260;59459;-59
2023/09/03 06:48:39;;;;;;;3.30;3.00;;;;;;;23.30;100.00;100008.02;104348;1262;72996;-59
2023/09/03 06:51:07;;;;;;;3.00;2.80;;;;;;;23.30;100.00;100002.29;104333;1261;70251;-60
2023/09/03 06:53:35;;;;;;;5.00;3.70;;;;;;;23.44;100.00;99997.58;104081;1262;72377;-59
2023/09/03 06:56:03;;;;;;;6.00;4.20;;;;;;;23.43;100.00;99995.37;104191;1262;61399;-60
2023/09/03 06:58:31;;;;;;;6.00;3.60;;;;;;;23.40;100.00;99998.48;104071;1257;60176;-60
2023/09/03 07:00:58;;;;;;;5.20;3.80;;;;;;;23.45;100.00;99991.28;103975;1264;72779;-59
2023/09/03 07:03:26;;;;;;;;;;;;;;;23.48;100.00;99991.38;104031;1280;69374;-60
2023/09/03 07:05:56;;;;;;;3.60;3.30;;;;;;;23.52;100.00;99991.34;103927;1262;72485;-59
2023/09/03 07:08:24;;;;;;;3.70;3.40;;;;;;;23.55;100.00;99994.29;103906;1257;61445;-60
2023/09/03 07:10:58;;;;;;;3.60;3.30;;;;;;;23.57;100.00;99993.31;103978;1262;59988;-60
2023/09/03 07:13:25;;;;;;;3.80;3.50;;;;;;;23.62;100.00;99995.61;103975;1280;72783;-60
2023/09/03 07:15:53;;;;;;;4.50;3.30;;;;;;;23.67;100.00;99994.93;103957;1262;70102;-59
2023/09/03 07:18:21;;;;;;;4.20;3.60;;;;;;;23.74;100.00;99993.66;104151;1270;72919;-62
2023/09/03 07:21:00;;;;;;;;;;;;;;;23.85;100.00;99989.25;103998;1262;61550;-60
2023/09/03 07:23:27;;;;;;;3.70;3.40;;;;;;;23.94;100.00;99991.67;104326;1257;59893;-60
2023/09/03 07:26:00;;;;;;;3.70;3.20;;;;;;;23.99;99.90;99995.11;104294;1251;72046;-62
2023/09/03 07:28:30;;;;;;;3.80;3.40;;;;;;;24.11;99.39;99996.27;104207;1254;70250;-60
2023/09/03 07:31:01;;;;;;;3.70;3.20;;;;;;;24.17;97.71;99996.10;104671;1256;72932;-61
2023/09/03 07:33:29;;;;;;;5.80;3.40;;;;;;;24.18;99.39;99996.92;104617;1259;61417;-60
2023/09/03 07:35:58;;;;;;;4.40;3.20;;;;;;;24.24;99.63;100001.36;104392;1256;59886;-60
2023/09/03 07:38:27;;;;;;;3.40;3.10;;;;;;;24.32;98.88;100000.52;104269;1259;73700;-61
2023/09/03 07:40:55;;;;;;;4.50;3.30;;;;;;;24.40;97.68;100001.92;105873;1252;69726;-64
2023/09/03 07:43:23;;;;;;;4.00;3.50;;;;;;;24.46;96.14;100000.46;108432;1251;72827;-61
2023/09/03 07:45:56;;;;;;;4.60;3.30;;;;;;;24.56;96.32;99997.13;106668;1253;61453;-61
2023/09/03 07:48:23;;;;;;;3.40;3.10;;;;;;;24.66;94.16;99992.15;104526;1254;59700;-61
2023/09/03 07:50:52;;;;;;;3.50;3.20;;;;;;;24.63;94.71;99991.70;104667;1255;73776;-62
2023/09/03 07:53:20;;;;;;;7.30;3.80;;;;;;;24.67;94.27;99991.39;104531;1259;69445;-61
2023/09/03 07:55:48;;;;;;;3.90;3.40;;;;;;;24.73;94.92;99992.75;104525;1260;72490;-62
2023/09/03 07:58:16;;;;;;;4.40;3.30;;;;;;;24.75;93.93;99992.33;104372;1258;61416;-61
2023/09/03 08:00:44;;;;;;;4.00;3.30;;;;;;;24.81;92.52;99992.70;104421;1257;59736;-61
2023/09/03 08:03:11;;;;;;;3.60;3.10;;;;;;;24.84;92.49;99988.77;104567;1261;72846;-61
2023/09/03 08:05:39;;;;;;;;;;;;;;;24.88;91.64;99983.41;104853;1251;70185;-62
2023/09/03 08:08:07;;;;;;;2.90;2.70;;;;;;;24.89;88.98;99984.20;104456;1257;73376;-60
2023/09/03 08:10:35;;;;;;;3.70;3.30;;;;;;;24.90;89.62;99981.80;104365;1257;61372;-60
2023/09/03 08:13:03;;;;;;;;;;;;;;;24.92;88.44;99986.92;104435;1257;61032;-60
2023/09/03 08:15:34;;;;;;;7.70;2.80;;;;;;;24.93;88.13;99986.49;104292;1259;73746;-60
2023/09/03 08:18:11;;;;;;;4.80;2.90;;;;;;;24.94;88.59;99983.41;104463;1272;69082;-61
2023/09/03 08:20:39;;;;;;;3.50;3.20;;;;;;;24.98;89.08;99979.58;104436;1258;73343;-60
2023/09/03 08:23:11;;;;;;;3.90;3.20;;;;;;;25.02;89.56;99977.22;104282;1253;61777;-61
2023/09/03 08:25:39;;;;;;;3.40;2.80;;;;;;;25.04;87.91;99972.52;104265;1259;59747;-61
2023/09/03 08:28:08;;;;;;;4.80;3.10;;;;;;;25.06;88.01;99970.14;104249;1259;71740;-61
2023/09/03 08:30:36;;;;;;;5.50;3.00;;;;;;;25.06;87.30;99974.98;104451;1257;69084;-60
2023/09/03 08:33:04;;;;;;;3.30;2.90;;;;;;;25.09;87.61;99975.24;104338;1268;72141;-61
2023/09/03 08:35:32;;;;;;;2.70;2.50;;;;;;;25.15;86.19;99975.08;104623;1256;61551;-61
2023/09/03 08:37:59;;;;;;;;;;;;;;;25.15;85.21;99973.38;104249;1262;60071;-61
2023/09/03 08:40:27;;;;;;;;;;;;;;;25.18;85.00;99973.13;104599;1251;73187;-61
2023/09/03 08:42:54;;;;;;;;;;;;;;;25.17;85.12;99971.36;104498;1269;69077;-60
2023/09/03 08:45:22;;;;;;;3.00;2.60;;;;;;;25.17;84.72;99969.79;104337;1257;73068;-60
2023/09/03 08:47:50;;;;;;;;;;;;;;;25.20;85.16;99975.58;104426;1257;61425;-61
2023/09/03 08:50:18;;;;;;;3.10;2.70;;;;;;;25.31;84.49;99975.14;104276;1270;59762;-60
2023/09/03 08:52:46;;;;;;;4.20;3.00;;;;;;;25.41;85.29;99975.17;104503;1253;71846;-61
2023/09/03 08:55:13;;;;;;;;;;;;;;;25.55;84.24;99970.93;105195;1253;69119;-61
2023/09/03 08:57:42;;;;;;;3.20;2.90;;;;;;;25.69;82.10;99975.97;107872;1251;72492;-61
2023/09/03 09:00:14;;;;;;;3.80;2.40;;;;;;;25.79;81.03;99974.38;104630;1261;61624;-61
2023/09/03 09:02:44;;;;;;;2.80;2.60;;;;;;;25.90;78.30;99977.45;104633;1258;59857;-60
2023/09/03 09:05:12;;;;;;;2.80;2.50;;;;;;;25.97;74.30;99978.16;104833;1255;72764;-60
2023/09/03 09:07:40;;;;;;;4.20;2.20;;;;;;;25.91;71.82;99967.61;106341;1253;68334;-60
2023/09/03 09:10:10;;;;;;;3.60;2.50;;;;;;;26.03;70.98;99978.65;104316;1254;72935;-60
2023/09/03 09:12:47;;;;;;;3.10;2.40;;;;;;;26.02;68.93;99979.23;104332;1257;59870;-61
2023/09/03 09:15:15;;;;;;;2.30;2.00;;;;;;;25.99;67.54;99982.66;104334;1258;59815;-60
2023/09/03 09:17:43;;;;;;;;;;;;;;;25.98;66.54;99977.17;104279;1275;72765;-60
2023/09/03 09:20:12;;;;;;;3.10;2.30;;;;;;;25.94;65.78;99978.31;104394;1257;70291;-59
2023/09/03 09:24:28;;;;;;;2.30;1.90;;;;;;;25.52;69.07;99977.78;101562;1290;600904;-59
2023/09/03 09:27:08;;;;;;;;;;;;;;;26.00;64.58;99971.73;103915;1271;60169;-60
2023/09/03 09:29:36;;;;;;;2.00;1.90;;;;;;;26.07;63.78;99969.11;103720;1272;59782;-60
2023/09/03 09:32:19;;;;;;;2.60;2.40;;;;;;;26.10;64.57;99975.09;103615;1270;72064;-60
2023/09/03 09:34:48;;;;;;;2.00;1.90;;;;;;;26.21;63.97;99974.09;104430;1254;69306;-61
2023/09/03 09:37:15;;;;;;;;;;;;;;;26.26;62.69;99972.16;104301;1257;453030;-60
2023/09/03 09:39:49;;;;;;;3.80;2.30;;;;;;;26.30;62.12;99975.02;104550;1252;60783;-60
2023/09/03 09:42:20;;;;;;;3.20;2.20;;;;;;;26.37;61.38;99969.17;104315;1254;59921;-61
2023/09/03 09:44:51;;;;;;;3.30;1.90;;;;;;;26.41;60.29;99965.01;105060;1254;72529;-61
2023/09/03 09:47:20;;;;;;;3.10;1.90;;;;;;;26.46;58.14;99964.19;104585;1257;69048;-61
2023/09/03 09:49:47;;;;;;;2.50;1.80;;;;;;;26.54;57.76;99963.11;104403;1260;72408;-62
2023/09/03 09:52:15;;;;;;;;;;;;;;;26.57;56.25;99964.98;104238;1253;60151;-60
2023/09/03 09:54:44;;;;;;;2.30;2.00;;;;;;;26.58;54.03;99967.73;104585;1251;59507;-60
2023/09/03 09:57:20;;;;;;;3.00;2.20;;;;;;;26.61;55.16;99967.08;104577;1257;73210;-61
2023/09/03 09:59:53;;;;;;;2.50;1.80;;;;;;;26.59;54.09;99962.91;104283;1262;69525;-61
2023/09/03 10:02:22;;;;;;;3.50;2.00;;;;;;;26.68;54.05;99964.39;104423;1254;72380;-61
2023/09/03 10:04:51;;;;;;;2.10;1.90;;;;;;;26.74;53.23;99965.15;104310;1251;59899;-60
2023/09/03 10:07:19;;;;;;;2.90;1.90;;;;;;;26.82;53.28;99964.66;104436;1254;60199;-60
2023/09/03 10:09:47;;;;;;;;;;;;;;;26.86;53.30;99969.09;104344;1251;73230;-62
2023/09/03 10:12:14;;;;;;;2.90;2.30;;;;;;;26.89;53.30;99962.91;104716;1258;69555;-61
2023/09/03 10:14:42;;;;;;;2.20;2.00;;;;;;;26.89;53.60;99958.95;104411;1253;72385;-61
2023/09/03 10:17:10;;;;;;;;;;;;;;;26.93;53.61;99958.82;104392;1260;59925;-61
2023/09/03 10:19:55;;;;;;;4.20;2.20;;;;;;;27.02;53.42;99958.40;104517;1257;59656;-60
2023/09/03 10:22:25;;;;;;;1.90;1.80;;;;;;;27.07;53.63;99955.38;104249;1257;72757;-61
2023/09/03 10:24:59;;;;;;;2.30;2.10;;;;;;;27.19;52.96;99952.27;104443;1260;69417;-61
2023/09/03 10:27:28;;;;;;;2.90;2.20;;;;;;;27.28;52.22;99954.38;104626;1254;73839;-62
2023/09/03 10:29:57;;;;;;;4.50;2.20;;;;;;;27.31;52.37;99954.14;104240;1254;60069;-62
2023/09/03 10:32:24;;;;;;;4.50;2.20;;;;;;;27.29;52.24;99948.78;104306;1254;59712;-64
2023/09/03 10:34:52;;;;;;;2.60;2.00;;;;;;;27.35;52.57;99948.38;104441;1257;71642;-64
2023/09/03 10:37:22;;;;;;;;;;;;;;;27.40;53.52;99943.80;104489;1257;69050;-65
2023/09/03 10:39:50;;;;;;;2.10;2.00;;;;;;;27.45;52.71;99944.80;104220;1276;72863;-63
2023/09/03 10:42:17;;;;;;;3.40;1.70;;;;;;;27.53;52.03;99942.33;104355;1256;60819;-63
2023/09/03 10:44:52;;;;;;;2.20;1.70;;;;;;;27.57;51.82;99947.23;104571;1253;59691;-61
2023/09/03 10:47:20;;;;;;;3.20;2.40;;;;;;;27.61;52.17;99944.38;104347;1273;72792;-63
2023/09/03 10:49:48;;;;;;;5.80;2.20;;;;;;;27.67;52.06;99939.02;104498;1257;70740;-63
2023/09/03 10:52:32;;;;;;;1.70;1.60;;;;;;;27.74;53.00;99935.94;104841;1257;71312;-62
2023/09/03 10:55:10;;;;;;;2.10;1.90;;;;;;;27.80;51.62;99935.35;104327;1254;59798;-62
2023/09/03 10:57:38;;;;;;;3.70;1.90;;;;;;;27.80;52.03;99930.05;104286;1254;59751;-62
2023/09/03 11:00:10;;;;;;;1.80;1.70;;;;;;;27.83;52.03;99933.06;104254;1257;73639;-60
2023/09/03 11:02:39;;;;;;;3.60;2.10;;;;;;;27.89;50.74;99930.11;104461;1253;69059;-61
2023/09/03 11:05:21;;;;;;;3.90;2.00;;;;;;;27.90;50.80;99928.05;104725;1254;72807;-64
2023/09/03 11:08:26;;;;;;;1.90;1.70;;;;;;;27.93;50.25;99920.30;104385;1254;59822;-61
2023/09/03 11:10:53;;;;;;;4.30;2.00;;;;;;;27.96;49.89;99924.23;104496;1253;59811;-60
2023/09/03 11:13:23;;;;;;;3.00;2.20;;;;;;;28.04;49.63;99924.64;104532;1253;72800;-61
2023/09/03 11:16:05;;;;;;;2.00;1.90;;;;;;;28.11;50.31;99927.36;104432;1254;69117;-60
2023/09/03 11:18:33;;;;;;;2.20;2.00;;;;;;;28.15;49.52;99927.73;104498;1255;73406;-61
2023/09/03 11:21:01;;;;;;;2.10;1.90;;;;;;;28.16;49.44;99923.10;104648;1257;60812;-61
2023/09/03 11:23:29;;;;;;;;;;;;;;;28.25;48.58;99918.48;104447;1251;59737;-60
2023/09/03 21:40:55;;;;;;;7.50;6.70;;;;;;;20.40;100.00;99909.95;101499;1291;600822;-59
2023/09/03 21:43:23;;;;;;;8.90;7.20;;;;;;;20.83;100.00;99906.56;103471;1274;61493;-59
2023/09/03 21:45:51;;;;;;;7.10;6.20;;;;;;;20.82;100.00;99904.55;103649;1269;60036;-59
2023/09/03 21:48:20;;;;;;;6.30;5.70;;;;;;;20.82;100.00;99905.41;103481;1271;72382;-59
2023/09/03 21:50:49;;;;;;;7.20;5.80;;;;;;;20.82;100.00;99907.77;103500;1288;69432;-59
2023/09/03 21:53:20;;;;;;;7.30;6.60;;;;;;;20.79;100.00;99909.60;103614;1272;73330;-60